createdAt,value
2022-11-01T00:04:42.253Z,8.00
2022-11-01T00:09:45.339Z,9.00
2022-11-01T00:14:48.551Z,10.10
2022-11-01T00:19:51.619Z,10.40
2022-11-01T00:24:55.086Z,8.90
2022-11-01T00:29:58.454Z,8.70
2022-11-01T00:35:01.599Z,9.00
2022-11-01T00:40:05.335Z,8.70
2022-11-01T00:45:08.606Z,8.90
2022-11-01T00:50:11.699Z,8.60
2022-11-01T00:55:14.911Z,8.10
2022-11-01T01:00:18.228Z,8.30
2022-11-01T01:05:21.399Z,8.80
2022-11-01T01:10:24.929Z,7.80
2022-11-01T01:15:28.073Z,8.70
2022-11-01T01:20:31.121Z,8.40
2022-11-01T01:25:34.254Z,8.90
2022-11-01T01:30:41.279Z,8.20
2022-11-01T01:35:44.925Z,8.60
2022-11-01T01:40:47.998Z,8.90
2022-11-01T01:45:51.092Z,8.30
2022-11-01T01:51:02.285Z,7.90
2022-11-01T01:56:16.374Z,8.40
2022-11-01T02:01:19.725Z,8.10
2022-11-01T02:11:33.024Z,6.80
2022-11-01T02:16:41.968Z,7.10
2022-11-01T02:22:24.997Z,6.70
2022-11-01T02:27:43.192Z,7.20
2022-11-01T02:33:15.614Z,7.10
2022-11-01T02:38:24.368Z,6.80
2022-11-01T02:43:40.246Z,7.40
2022-11-01T02:48:43.953Z,6.90
2022-11-01T02:53:47.256Z,6.80
2022-11-01T02:58:52.995Z,7.10
2022-11-01T03:03:58.051Z,6.70
2022-11-01T03:09:04.969Z,6.20
2022-11-01T03:14:20.216Z,6.40
2022-11-01T03:19:32.382Z,5.10
2022-11-01T03:24:37.628Z,6.90
2022-11-01T03:29:44.342Z,6.30
2022-11-01T03:34:47.887Z,6.10
2022-11-01T03:39:53.738Z,6.70
2022-11-01T03:45:03.560Z,6.50
2022-11-01T03:50:21.409Z,7.00
2022-11-01T03:55:24.845Z,6.00
2022-11-01T04:00:31.482Z,6.30
2022-11-01T04:05:36.497Z,6.60
2022-11-01T04:10:39.641Z,5.40
2022-11-01T04:16:01.548Z,5.70
2022-11-01T04:21:07.069Z,5.00
2022-11-01T04:26:15.949Z,5.30
2022-11-01T04:31:18.989Z,5.40
2022-11-01T04:36:22.943Z,4.40
2022-11-01T04:41:28.532Z,4.90
2022-11-01T04:46:32.185Z,5.80
2022-11-01T04:51:35.355Z,5.80
2022-11-01T04:56:38.520Z,4.60
2022-11-01T05:01:41.683Z,5.40
2022-11-01T05:06:44.921Z,5.60
2022-11-01T05:11:47.975Z,5.60
2022-11-01T05:16:51.111Z,5.20
2022-11-01T05:21:54.225Z,5.40
2022-11-01T05:26:57.410Z,5.40
2022-11-01T05:32:01.027Z,5.60
2022-11-01T05:37:04.155Z,5.90
2022-11-01T05:42:07.655Z,5.90
2022-11-01T05:47:13.332Z,5.20
2022-11-01T05:52:20.222Z,4.70
2022-11-01T05:57:23.694Z,5.00
2022-11-01T06:02:26.967Z,4.70
2022-11-01T06:07:30.441Z,5.20
2022-11-01T06:12:33.505Z,7.50
2022-11-01T06:17:36.659Z,6.20
2022-11-01T06:22:39.804Z,5.50
2022-11-01T06:27:42.969Z,5.50
2022-11-01T06:32:46.190Z,5.00
2022-11-01T06:37:49.303Z,4.90
2022-11-01T06:42:52.304Z,5.90
2022-11-01T06:47:55.455Z,6.70
2022-11-01T06:52:59.684Z,6.00
2022-11-01T06:58:06.441Z,5.90
2022-11-01T07:03:13.200Z,6.60
2022-11-01T07:08:16.397Z,6.30
2022-11-01T07:13:19.559Z,5.80
2022-11-01T07:18:22.721Z,6.10
2022-11-01T07:23:26.016Z,6.20
2022-11-01T07:28:29.149Z,4.20
2022-11-01T07:33:32.475Z,4.70
2022-11-01T07:38:36.258Z,5.90
2022-11-01T07:43:39.563Z,6.90
2022-11-01T07:48:42.891Z,7.40
2022-11-01T07:53:46.193Z,6.30
2022-11-01T07:58:49.508Z,5.90
2022-11-01T08:03:53.634Z,6.30
2022-11-01T08:08:57.855Z,7.10
2022-11-01T08:14:05.242Z,6.30
2022-11-01T08:19:11.549Z,7.20
2022-11-01T08:24:14.729Z,6.90
2022-11-01T08:29:17.896Z,6.40
2022-11-01T08:34:21.031Z,5.60
2022-11-01T08:39:24.171Z,4.10
2022-11-01T08:44:27.361Z,5.90
2022-11-01T08:49:31.125Z,5.00
2022-11-01T08:54:34.622Z,4.70
2022-11-01T08:59:37.761Z,5.80
2022-11-01T09:04:41.614Z,5.80
2022-11-01T09:09:45.367Z,7.20
2022-11-01T09:14:49.355Z,8.30
2022-11-01T09:19:52.501Z,9.20
2022-11-01T09:24:57.698Z,7.60
2022-11-01T09:30:02.428Z,7.10
2022-11-01T09:35:06.335Z,7.30
2022-11-01T09:40:11.129Z,10.70
2022-11-01T09:45:23.683Z,11.00
2022-11-01T09:50:30.908Z,10.80
2022-11-01T09:55:46.375Z,8.90
2022-11-01T10:01:01.318Z,9.20
2022-11-01T10:06:26.672Z,9.60
2022-11-01T10:11:43.973Z,8.60
2022-11-01T10:17:07.249Z,9.40
2022-11-01T10:22:28.093Z,10.20
2022-11-01T10:28:02.522Z,9.30
2022-11-01T10:33:34.148Z,9.70
2022-11-01T10:39:36.982Z,8.30
2022-11-01T10:44:25.359Z,8.40
2022-11-01T10:55:03.226Z,7.30
2022-11-01T11:00:14.421Z,5.60
2022-11-01T11:05:17.895Z,7.50
2022-11-01T11:10:25.106Z,8.50
2022-11-01T11:15:47.155Z,8.40
2022-11-01T11:20:57.012Z,9.00
2022-11-01T11:26:03.418Z,7.30
2022-11-01T11:31:15.466Z,6.70
2022-11-01T11:36:31.626Z,6.10
2022-11-01T11:41:37.191Z,7.60
2022-11-01T11:46:57.051Z,6.80
2022-11-01T11:52:00.338Z,8.10
2022-11-01T11:57:18.745Z,7.30
2022-11-01T12:02:35.974Z,7.90
2022-11-01T12:07:51.775Z,8.20
2022-11-01T12:12:57.055Z,9.40
2022-11-01T12:18:16.311Z,9.60
2022-11-01T12:23:35.339Z,8.90
2022-11-01T12:29:03.604Z,8.30
2022-11-01T12:34:31.368Z,7.40
2022-11-01T12:40:03.163Z,8.70
2022-11-01T12:45:35.796Z,9.70
2022-11-01T12:51:02.627Z,8.00
2022-11-01T12:56:06.359Z,6.40
2022-11-01T13:01:13.499Z,7.40
2022-11-01T13:06:55.189Z,9.90
2022-11-01T13:12:10.880Z,8.50
2022-11-01T13:17:31.365Z,9.00
2022-11-01T13:22:48.564Z,8.90
2022-11-01T13:27:58.490Z,9.00
2022-11-01T13:33:13.202Z,11.50
2022-11-01T13:38:24.318Z,9.90
2022-11-01T13:43:34.658Z,9.60
2022-11-01T13:48:46.609Z,10.50
2022-11-01T13:54:35.304Z,9.60
2022-11-01T13:59:45.164Z,8.30
2022-11-01T14:04:58.637Z,9.00
2022-11-01T14:10:10.775Z,10.20
2022-11-01T14:15:24.596Z,10.60
2022-11-01T14:20:34.252Z,10.20
2022-11-01T14:25:37.489Z,8.30
2022-11-01T14:30:43.458Z,10.70
2022-11-01T14:35:57.627Z,10.80
2022-11-01T14:41:02.167Z,9.30
2022-11-01T14:46:13.639Z,9.10
2022-11-01T14:51:28.676Z,11.30
2022-11-01T14:56:39.936Z,10.30
2022-11-01T15:01:48.471Z,13.10
2022-11-01T15:06:52.190Z,12.10
2022-11-01T15:12:05.351Z,11.80
2022-11-01T15:17:21.855Z,10.90
2022-11-01T15:22:31.913Z,11.40
2022-11-01T15:27:42.460Z,12.90
2022-11-01T15:32:46.062Z,12.70
2022-11-01T15:37:51.164Z,11.20
2022-11-01T15:42:59.993Z,15.40
2022-11-01T15:48:09.983Z,13.00
2022-11-01T15:53:20.436Z,12.80
2022-11-01T15:58:38.546Z,13.60
2022-11-01T16:03:52.313Z,10.80
2022-11-01T16:09:00.880Z,12.20
2022-11-01T16:14:33.547Z,11.30
2022-11-01T16:19:48.744Z,12.60
2022-11-01T16:25:01.379Z,11.70
2022-11-01T16:30:10.741Z,9.00
2022-11-01T16:35:33.455Z,11.80
2022-11-01T16:40:39.118Z,14.10
2022-11-01T16:45:42.418Z,15.90
2022-11-01T16:50:45.545Z,12.30
2022-11-01T16:55:49.161Z,15.30
2022-11-01T17:00:56.022Z,12.60
2022-11-01T17:05:59.578Z,16.00
2022-11-01T17:11:03.138Z,15.00
2022-11-01T17:16:07.825Z,15.90
2022-11-01T17:21:11.961Z,11.80
2022-11-01T17:26:16.594Z,13.60
2022-11-01T17:31:19.772Z,14.10
2022-11-01T17:36:23.123Z,15.80
2022-11-01T17:41:26.749Z,11.50
2022-11-01T17:46:30.092Z,14.30
2022-11-01T17:51:34.066Z,12.80
2022-11-01T17:56:37.179Z,13.60
2022-11-01T18:01:40.612Z,15.20
2022-11-01T18:06:44.828Z,16.20
2022-11-01T18:12:17.625Z,20.40
2022-11-01T18:17:39.777Z,12.70
2022-11-01T18:23:00.762Z,18.50
2022-11-01T18:28:13.797Z,19.10
2022-11-01T18:33:38.011Z,20.20
2022-11-01T18:38:53.719Z,19.70
2022-11-01T18:43:56.854Z,17.40
2022-11-01T18:49:02.297Z,15.70
2022-11-01T18:54:08.553Z,18.10
2022-11-01T18:59:15.467Z,16.10
2022-11-01T19:04:31.710Z,17.70
2022-11-01T19:09:38.493Z,18.60
2022-11-01T19:14:42.362Z,12.70
2022-11-01T19:19:47.155Z,16.30
2022-11-01T19:24:50.382Z,18.60
2022-11-01T19:29:57.785Z,18.00
2022-11-01T19:35:01.295Z,19.10
2022-11-01T19:40:13.174Z,17.10
2022-11-01T19:45:23.208Z,19.20
2022-11-01T19:50:38.626Z,19.10
2022-11-01T19:56:00.024Z,19.30
2022-11-01T20:01:09.375Z,19.40
2022-11-01T20:06:20.658Z,18.50
2022-11-01T20:11:24.274Z,18.40
2022-11-01T20:16:27.416Z,20.20
2022-11-01T20:21:30.567Z,20.30
2022-11-01T20:26:34.043Z,19.60
2022-11-01T20:31:39.732Z,19.80
2022-11-01T20:36:44.625Z,20.00
2022-11-01T20:41:50.048Z,21.10
2022-11-01T20:46:53.306Z,19.20
2022-11-01T20:52:03.793Z,20.60
2022-11-01T20:57:27.528Z,19.50
2022-11-01T21:02:32.425Z,22.00
2022-11-01T21:07:36.081Z,19.50
2022-11-01T21:12:45.552Z,19.90
2022-11-01T21:18:11.714Z,20.70
2022-11-01T21:23:24.865Z,20.80
2022-11-01T21:28:34.783Z,20.30
2022-11-01T21:33:41.293Z,22.80
2022-11-01T21:38:47.760Z,22.20
2022-11-01T21:43:51.973Z,22.20
2022-11-01T21:48:59.629Z,22.50
2022-11-01T21:54:04.469Z,24.10
2022-11-01T21:59:08.045Z,23.20
2022-11-01T22:04:12.357Z,17.90
2022-11-01T22:09:17.108Z,22.10
2022-11-01T22:14:20.511Z,22.50
2022-11-01T22:19:23.668Z,22.90
2022-11-01T22:24:27.384Z,22.00
2022-11-01T22:29:30.535Z,23.80
2022-11-01T22:34:33.712Z,23.90
2022-11-01T22:39:36.894Z,22.90
2022-11-01T22:44:41.495Z,24.40
2022-11-01T22:49:52.861Z,23.80
2022-11-01T22:55:08.301Z,25.30
2022-11-01T23:00:29.053Z,25.50
2022-11-01T23:05:32.583Z,27.10
2022-11-01T23:10:35.936Z,27.20
2022-11-01T23:15:39.091Z,27.30
2022-11-01T23:20:42.982Z,26.20
2022-11-01T23:25:47.104Z,27.50
2022-11-01T23:30:51.959Z,29.00
2022-11-01T23:36:01.016Z,28.50
2022-11-01T23:41:04.346Z,26.60
2022-11-01T23:46:10.594Z,28.00
2022-11-01T23:51:21.311Z,25.20
2022-11-01T23:56:24.501Z,27.20
